sensor_id;sensor_type;location;lat;lon;timestamp;P1;durP1;ratioP1;P2;durP2;ratioP2
12038;SDS011;6080;48.818;9.526;2023-03-14T04:00:48;13.90;;;13.30;;
12038;SDS011;6080;48.818;9.526;2023-03-14T04:03:14;14.80;;;14.00;;
12038;SDS011;6080;48.818;9.526;2023-03-14T04:05:40;10.43;;;9.97;;
12038;SDS011;6080;48.818;9.526;2023-03-14T04:08:06;5.63;;;5.43;;
12038;SDS011;6080;48.818;9.526;2023-03-14T04:10:33;5.03;;;4.83;;
12038;SDS011;6080;48.818;9.526;2023-03-14T04:13:00;4.37;;;4.10;;
12038;SDS011;6080;48.818;9.526;2023-03-14T04:15:26;5.77;;;5.47;;
12038;SDS011;6080;48.818;9.526;2023-03-14T04:17:56;6.47;;;6.27;;
12038;SDS011;6080;48.818;9.526;2023-03-14T04:20:23;7.10;;;6.80;;
12038;SDS011;6080;48.818;9.526;2023-03-14T04:22:48;6.40;;;6.10;;
12038;SDS011;6080;48.818;9.526;2023-03-14T04:25:14;6.00;;;5.67;;
12038;SDS011;6080;48.818;9.526;2023-03-14T04:27:42;8.03;;;7.60;;
12038;SDS011;6080;48.818;9.526;2023-03-14T04:30:08;5.27;;;4.90;;
12038;SDS011;6080;48.818;9.526;2023-03-14T04:32:34;5.17;;;5.00;;
12038;SDS011;6080;48.818;9.526;2023-03-14T04:35:00;5.40;;;5.20;;
12038;SDS011;6080;48.818;9.526;2023-03-14T04:37:26;15.37;;;14.47;;
12038;SDS011;6080;48.818;9.526;2023-03-14T04:39:51;16.17;;;15.23;;
12038;SDS011;6080;48.818;9.526;2023-03-14T04:42:17;19.77;;;18.80;;
12038;SDS011;6080;48.818;9.526;2023-03-14T04:44:43;20.43;;;19.30;;
12038;SDS011;6080;48.818;9.526;2023-03-14T04:47:09;16.97;;;15.97;;
12038;SDS011;6080;48.818;9.526;2023-03-14T04:49:34;13.63;;;12.90;;
12038;SDS011;6080;48.818;9.526;2023-03-14T04:52:00;10.83;;;10.33;;
12038;SDS011;6080;48.818;9.526;2023-03-14T04:54:26;7.40;;;6.90;;
12038;SDS011;6080;48.818;9.526;2023-03-14T04:56:52;4.97;;;4.50;;
12038;SDS011;6080;48.818;9.526;2023-03-14T04:59:17;4.93;;;4.73;;
12038;SDS011;6080;48.818;9.526;2023-03-14T05:01:43;6.03;;;5.43;;
12038;SDS011;6080;48.818;9.526;2023-03-14T05:04:09;6.77;;;6.43;;
12038;SDS011;6080;48.818;9.526;2023-03-14T05:06:34;11.57;;;10.90;;
12038;SDS011;6080;48.818;9.526;2023-03-14T05:09:00;16.60;;;15.80;;
12038;SDS011;6080;48.818;9.526;2023-03-14T05:11:26;25.80;;;24.57;;
12038;SDS011;6080;48.818;9.526;2023-03-14T05:13:52;26.87;;;25.57;;
12038;SDS011;6080;48.818;9.526;2023-03-14T05:16:18;24.37;;;23.07;;
12038;SDS011;6080;48.818;9.526;2023-03-14T05:18:43;21.40;;;20.40;;
12038;SDS011;6080;48.818;9.526;2023-03-14T05:21:09;23.13;;;21.93;;
12038;SDS011;6080;48.818;9.526;2023-03-14T05:23:35;18.83;;;17.83;;
12038;SDS011;6080;48.818;9.526;2023-03-14T05:26:00;22.00;;;20.97;;
12038;SDS011;6080;48.818;9.526;2023-03-14T05:28:26;26.83;;;25.27;;
12038;SDS011;6080;48.818;9.526;2023-03-14T05:30:52;18.73;;;17.50;;
12038;SDS011;6080;48.818;9.526;2023-03-14T05:33:18;16.80;;;15.80;;
12038;SDS011;6080;48.818;9.526;2023-03-14T05:35:43;11.20;;;10.67;;
12038;SDS011;6080;48.818;9.526;2023-03-14T05:38:18;9.40;;;8.70;;
12038;SDS011;6080;48.818;9.526;2023-03-14T05:40:44;7.00;;;6.40;;
12038;SDS011;6080;48.818;9.526;2023-03-14T05:43:11;8.57;;;7.87;;
12038;SDS011;6080;48.818;9.526;2023-03-14T05:45:36;8.97;;;8.47;;
12038;SDS011;6080;48.818;9.526;2023-03-14T05:48:02;9.00;;;8.47;;
12038;SDS011;6080;48.818;9.526;2023-03-14T05:50:28;7.73;;;7.30;;
12038;SDS011;6080;48.818;9.526;2023-03-14T05:52:54;6.87;;;6.47;;
12038;SDS011;6080;48.818;9.526;2023-03-14T05:55:20;7.17;;;6.83;;
12038;SDS011;6080;48.818;9.526;2023-03-14T05:57:45;5.53;;;5.20;;
12038;SDS011;6080;48.818;9.526;2023-03-14T06:00:11;29.97;;;28.37;;
12038;SDS011;6080;48.818;9.526;2023-03-14T06:02:37;15.60;;;14.80;;
12038;SDS011;6080;48.818;9.526;2023-03-14T06:05:04;10.67;;;10.10;;
12038;SDS011;6080;48.818;9.526;2023-03-14T06:07:30;16.97;;;16.17;;
12038;SDS011;6080;48.818;9.526;2023-03-14T06:09:56;37.43;;;35.57;;
12038;SDS011;6080;48.818;9.526;2023-03-14T06:12:23;21.00;;;19.97;;
12038;SDS011;6080;48.818;9.526;2023-03-14T06:14:49;8.77;;;7.87;;
12038;SDS011;6080;48.818;9.526;2023-03-14T06:17:15;9.80;;;9.30;;
12038;SDS011;6080;48.818;9.526;2023-03-14T06:19:41;10.10;;;9.50;;
12038;SDS011;6080;48.818;9.526;2023-03-14T06:22:06;9.10;;;8.70;;
12038;SDS011;6080;48.818;9.526;2023-03-14T06:24:32;12.83;;;12.17;;
12038;SDS011;6080;48.818;9.526;2023-03-14T06:26:58;12.07;;;11.57;;
12038;SDS011;6080;48.818;9.526;2023-03-14T06:29:24;11.27;;;10.67;;
12038;SDS011;6080;48.818;9.526;2023-03-14T06:31:49;12.73;;;10.10;;
12038;SDS011;6080;48.818;9.526;2023-03-14T06:34:15;10.33;;;9.73;;
12038;SDS011;6080;48.818;9.526;2023-03-14T06:36:41;8.37;;;7.97;;
12038;SDS011;6080;48.818;9.526;2023-03-14T06:39:07;7.50;;;6.90;;
12038;SDS011;6080;48.818;9.526;2023-03-14T06:41:32;6.87;;;6.47;;
12038;SDS011;6080;48.818;9.526;2023-03-14T06:43:58;9.20;;;8.70;;
12038;SDS011;6080;48.818;9.526;2023-03-14T06:46:24;8.73;;;8.17;;
12038;SDS011;6080;48.818;9.526;2023-03-14T06:48:49;9.70;;;9.10;;
12038;SDS011;6080;48.818;9.526;2023-03-14T06:51:15;11.40;;;10.70;;
12038;SDS011;6080;48.818;9.526;2023-03-14T06:53:41;13.00;;;12.40;;
12038;SDS011;6080;48.818;9.526;2023-03-14T06:56:07;11.60;;;10.83;;
12038;SDS011;6080;48.818;9.526;2023-03-14T06:58:33;10.90;;;10.20;;
12038;SDS011;6080;48.818;9.526;2023-03-14T07:00:59;12.30;;;11.60;;
12038;SDS011;6080;48.818;9.526;2023-03-14T07:03:25;7.80;;;7.30;;
12038;SDS011;6080;48.818;9.526;2023-03-14T07:05:50;6.30;;;5.90;;
12038;SDS011;6080;48.818;9.526;2023-03-14T07:08:16;10.10;;;9.40;;
12038;SDS011;6080;48.818;9.526;2023-03-14T07:10:42;12.77;;;11.97;;
12038;SDS011;6080;48.818;9.526;2023-03-14T07:13:08;12.97;;;12.30;;
12038;SDS011;6080;48.818;9.526;2023-03-14T07:15:33;17.40;;;16.13;;
12038;SDS011;6080;48.818;9.526;2023-03-14T07:17:59;18.50;;;17.50;;
12038;SDS011;6080;48.818;9.526;2023-03-14T07:20:25;8.33;;;7.37;;
12038;SDS011;6080;48.818;9.526;2023-03-14T07:22:51;4.17;;;3.40;;
12038;SDS011;6080;48.818;9.526;2023-03-14T07:25:17;7.33;;;6.87;;
12038;SDS011;6080;48.818;9.526;2023-03-14T07:27:43;11.47;;;10.83;;
12038;SDS011;6080;48.818;9.526;2023-03-14T07:30:10;5.37;;;4.97;;
12038;SDS011;6080;48.818;9.526;2023-03-14T07:32:36;6.90;;;4.87;;
12038;SDS011;6080;48.818;9.526;2023-03-14T07:35:02;41.70;;;39.73;;
12038;SDS011;6080;48.818;9.526;2023-03-14T07:37:28;33.60;;;31.90;;
12038;SDS011;6080;48.818;9.526;2023-03-14T07:39:54;21.57;;;20.53;;
12038;SDS011;6080;48.818;9.526;2023-03-14T07:42:20;4.43;;;4.17;;
12038;SDS011;6080;48.818;9.526;2023-03-14T07:44:45;5.53;;;3.70;;
12038;SDS011;6080;48.818;9.526;2023-03-14T07:47:11;4.33;;;3.93;;
12038;SDS011;6080;48.818;9.526;2023-03-14T07:49:37;3.50;;;3.40;;
12038;SDS011;6080;48.818;9.526;2023-03-14T07:52:03;3.80;;;3.70;;
12038;SDS011;6080;48.818;9.526;2023-03-14T07:54:28;3.60;;;3.40;;
12038;SDS011;6080;48.818;9.526;2023-03-14T07:56:54;6.43;;;6.13;;
12038;SDS011;6080;48.818;9.526;2023-03-14T07:59:20;6.30;;;6.00;;
12038;SDS011;6080;48.818;9.526;2023-03-14T08:01:46;6.90;;;6.50;;
12038;SDS011;6080;48.818;9.526;2023-03-14T08:04:12;5.17;;;4.87;;
12038;SDS011;6080;48.818;9.526;2023-03-14T08:06:37;4.27;;;3.97;;
12038;SDS011;6080;48.818;9.526;2023-03-14T08:09:03;5.57;;;5.23;;
12038;SDS011;6080;48.818;9.526;2023-03-14T08:11:29;8.57;;;8.17;;
12038;SDS011;6080;48.818;9.526;2023-03-14T08:13:55;10.83;;;10.13;;
12038;SDS011;6080;48.818;9.526;2023-03-14T08:16:21;11.40;;;10.73;;
12038;SDS011;6080;48.818;9.526;2023-03-14T08:18:47;10.57;;;9.73;;
12038;SDS011;6080;48.818;9.526;2023-03-14T08:21:13;12.10;;;11.17;;
12038;SDS011;6080;48.818;9.526;2023-03-14T08:23:39;11.07;;;10.23;;
12038;SDS011;6080;48.818;9.526;2023-03-14T08:26:05;11.23;;;10.70;;
12038;SDS011;6080;48.818;9.526;2023-03-14T08:28:32;9.93;;;9.27;;
12038;SDS011;6080;48.818;9.526;2023-03-14T08:30:58;10.03;;;9.37;;
12038;SDS011;6080;48.818;9.526;2023-03-14T08:33:26;11.17;;;10.57;;
12038;SDS011;6080;48.818;9.526;2023-03-14T08:35:53;10.40;;;10.00;;
12038;SDS011;6080;48.818;9.526;2023-03-14T08:38:20;16.93;;;16.23;;
12038;SDS011;6080;48.818;9.526;2023-03-14T08:40:46;13.90;;;13.30;;
12038;SDS011;6080;48.818;9.526;2023-03-14T08:43:12;11.97;;;11.37;;
12038;SDS011;6080;48.818;9.526;2023-03-14T08:45:37;11.30;;;10.70;;
12038;SDS011;6080;48.818;9.526;2023-03-14T08:48:03;9.13;;;8.57;;
12038;SDS011;6080;48.818;9.526;2023-03-14T08:50:29;11.27;;;10.67;;
12038;SDS011;6080;48.818;9.526;2023-03-14T08:52:55;12.43;;;11.93;;
12038;SDS011;6080;48.818;9.526;2023-03-14T08:55:25;14.50;;;13.90;;
12038;SDS011;6080;48.818;9.526;2023-03-14T08:57:52;11.17;;;10.67;;
12038;SDS011;6080;48.818;9.526;2023-03-14T09:00:18;11.07;;;10.47;;
12038;SDS011;6080;48.818;9.526;2023-03-14T09:02:45;8.27;;;7.67;;
12038;SDS011;6080;48.818;9.526;2023-03-14T09:05:11;9.23;;;8.57;;
12038;SDS011;6080;48.818;9.526;2023-03-14T09:07:38;13.93;;;13.23;;
12038;SDS011;6080;48.818;9.526;2023-03-14T09:10:05;17.60;;;16.53;;
12038;SDS011;6080;48.818;9.526;2023-03-14T09:12:31;8.90;;;8.40;;
12038;SDS011;6080;48.818;9.526;2023-03-14T09:14:58;16.27;;;15.57;;
12038;SDS011;6080;48.818;9.526;2023-03-14T09:17:23;18.57;;;17.73;;
12038;SDS011;6080;48.818;9.526;2023-03-14T09:19:49;14.40;;;13.60;;
12038;SDS011;6080;48.818;9.526;2023-03-14T09:22:15;8.63;;;8.23;;
12038;SDS011;6080;48.818;9.526;2023-03-14T09:24:41;10.33;;;9.93;;
12038;SDS011;6080;48.818;9.526;2023-03-14T09:27:07;9.63;;;9.23;;
12038;SDS011;6080;48.818;9.526;2023-03-14T09:29:33;8.00;;;7.50;;
12038;SDS011;6080;48.818;9.526;2023-03-14T09:31:59;23.13;;;22.13;;
12038;SDS011;6080;48.818;9.526;2023-03-14T09:34:25;26.87;;;25.57;;
12038;SDS011;6080;48.818;9.526;2023-03-14T09:36:51;63.90;;;60.83;;
12038;SDS011;6080;48.818;9.526;2023-03-14T09:39:17;75.63;;;71.97;;
12038;SDS011;6080;48.818;9.526;2023-03-14T09:41:43;43.83;;;41.70;;
12038;SDS011;6080;48.818;9.526;2023-03-14T09:44:13;38.77;;;36.97;;
12038;SDS011;6080;48.818;9.526;2023-03-14T09:46:44;36.50;;;34.83;;
12038;SDS011;6080;48.818;9.526;2023-03-14T09:49:36;51.57;;;49.13;;
12038;SDS011;6080;48.818;9.526;2023-03-14T09:52:05;47.20;;;44.97;;
12038;SDS011;6080;48.818;9.526;2023-03-14T09:54:59;38.40;;;36.63;;
12038;SDS011;6080;48.818;9.526;2023-03-14T09:57:29;38.57;;;36.70;;
12038;SDS011;6080;48.818;9.526;2023-03-14T09:59:58;57.37;;;54.53;;
12038;SDS011;6080;48.818;9.526;2023-03-14T10:02:37;74.10;;;70.40;;
12038;SDS011;6080;48.818;9.526;2023-03-14T10:05:05;61.40;;;58.50;;
12038;SDS011;6080;48.818;9.526;2023-03-14T10:07:41;12.33;;;11.77;;
12038;SDS011;6080;48.818;9.526;2023-03-14T10:12:40;5.60;;;5.30;;
12038;SDS011;6080;48.818;9.526;2023-03-14T10:15:13;5.90;;;5.70;;
12038;SDS011;6080;48.818;9.526;2023-03-14T10:17:48;12.03;;;11.43;;
12038;SDS011;6080;48.818;9.526;2023-03-14T10:20:36;11.40;;;10.90;;
12038;SDS011;6080;48.818;9.526;2023-03-14T10:23:05;12.60;;;11.70;;
12038;SDS011;6080;48.818;9.526;2023-03-14T10:25:39;15.77;;;15.00;;
12038;SDS011;6080;48.818;9.526;2023-03-14T10:28:23;14.47;;;13.77;;
12038;SDS011;6080;48.818;9.526;2023-03-14T10:30:58;12.37;;;11.87;;
12038;SDS011;6080;48.818;9.526;2023-03-14T10:33:29;15.67;;;15.00;;
12038;SDS011;6080;48.818;9.526;2023-03-14T10:36:17;11.30;;;10.57;;
12038;SDS011;6080;48.818;9.526;2023-03-14T10:38:46;13.43;;;12.93;;
12038;SDS011;6080;48.818;9.526;2023-03-14T10:41:16;16.40;;;15.70;;
12038;SDS011;6080;48.818;9.526;2023-03-14T10:43:45;16.87;;;16.17;;
12038;SDS011;6080;48.818;9.526;2023-03-14T10:46:17;7.87;;;7.57;;
12038;SDS011;6080;48.818;9.526;2023-03-14T10:48:44;6.67;;;6.47;;
12038;SDS011;6080;48.818;9.526;2023-03-14T10:53:55;3.47;;;3.20;;
12038;SDS011;6080;48.818;9.526;2023-03-14T10:56:24;3.83;;;3.63;;
12038;SDS011;6080;48.818;9.526;2023-03-14T10:58:56;3.77;;;3.53;;
12038;SDS011;6080;48.818;9.526;2023-03-14T11:01:26;7.97;;;7.67;;
12038;SDS011;6080;48.818;9.526;2023-03-14T11:06:50;28.60;;;27.17;;
12038;SDS011;6080;48.818;9.526;2023-03-14T11:21:08;18.63;;;17.80;;
12038;SDS011;6080;48.818;9.526;2023-03-14T11:31:42;94.67;;;90.10;;
12038;SDS011;6080;48.818;9.526;2023-03-14T11:34:13;93.60;;;89.20;;
12038;SDS011;6080;48.818;9.526;2023-03-14T11:37:07;54.57;;;52.00;;
12038;SDS011;6080;48.818;9.526;2023-03-14T11:39:50;34.30;;;32.70;;
12038;SDS011;6080;48.818;9.526;2023-03-14T11:42:22;28.37;;;27.07;;
12038;SDS011;6080;48.818;9.526;2023-03-14T11:44:49;25.83;;;24.70;;
12038;SDS011;6080;48.818;9.526;2023-03-14T11:47:23;6.83;;;6.40;;
12038;SDS011;6080;48.818;9.526;2023-03-14T11:49:53;4.73;;;4.43;;
12038;SDS011;6080;48.818;9.526;2023-03-14T11:52:41;17.17;;;16.33;;
12038;SDS011;6080;48.818;9.526;2023-03-14T11:55:19;14.10;;;13.50;;
12038;SDS011;6080;48.818;9.526;2023-03-14T11:57:51;12.13;;;11.63;;
12038;SDS011;6080;48.818;9.526;2023-03-14T12:00:23;5.97;;;5.77;;
12038;SDS011;6080;48.818;9.526;2023-03-14T12:10:48;11.67;;;11.17;;
12038;SDS011;6080;48.818;9.526;2023-03-14T12:13:18;4.23;;;4.10;;
12038;SDS011;6080;48.818;9.526;2023-03-14T12:15:53;3.73;;;3.63;;
12038;SDS011;6080;48.818;9.526;2023-03-14T12:18:25;4.77;;;4.47;;
12038;SDS011;6080;48.818;9.526;2023-03-14T12:20:55;3.83;;;3.73;;
12038;SDS011;6080;48.818;9.526;2023-03-14T12:23:26;3.13;;;3.00;;
12038;SDS011;6080;48.818;9.526;2023-03-14T12:26:43;45.83;;;43.73;;
12038;SDS011;6080;48.818;9.526;2023-03-14T12:34:01;3.63;;;3.53;;
12038;SDS011;6080;48.818;9.526;2023-03-14T12:42:11;4.87;;;4.77;;
12038;SDS011;6080;48.818;9.526;2023-03-14T12:44:44;11.40;;;10.97;;
12038;SDS011;6080;48.818;9.526;2023-03-14T12:49:43;50.63;;;48.17;;
12038;SDS011;6080;48.818;9.526;2023-03-14T12:52:19;5.30;;;5.20;;
12038;SDS011;6080;48.818;9.526;2023-03-14T12:54:52;3.60;;;3.50;;
12038;SDS011;6080;48.818;9.526;2023-03-14T13:00:32;8.47;;;8.17;;
12038;SDS011;6080;48.818;9.526;2023-03-14T13:03:01;3.23;;;3.10;;
12038;SDS011;6080;48.818;9.526;2023-03-14T13:05:50;16.83;;;16.10;;
12038;SDS011;6080;48.818;9.526;2023-03-14T13:08:34;5.73;;;5.53;;
12038;SDS011;6080;48.818;9.526;2023-03-14T13:11:02;15.30;;;14.47;;
12038;SDS011;6080;48.818;9.526;2023-03-14T13:13:34;7.47;;;7.07;;
12038;SDS011;6080;48.818;9.526;2023-03-14T13:16:02;6.40;;;6.13;;
12038;SDS011;6080;48.818;9.526;2023-03-14T13:18:39;46.50;;;44.27;;
12038;SDS011;6080;48.818;9.526;2023-03-14T13:21:16;7.77;;;7.27;;
12038;SDS011;6080;48.818;9.526;2023-03-14T13:24:20;3.37;;;3.27;;
12038;SDS011;6080;48.818;9.526;2023-03-14T13:26:47;5.43;;;4.93;;
12038;SDS011;6080;48.818;9.526;2023-03-14T13:29:20;3.53;;;3.43;;
12038;SDS011;6080;48.818;9.526;2023-03-14T13:32:31;3.67;;;3.57;;
12038;SDS011;6080;48.818;9.526;2023-03-14T13:34:50;3.43;;;3.33;;
12038;SDS011;6080;48.818;9.526;2023-03-14T13:37:20;3.73;;;3.43;;
12038;SDS011;6080;48.818;9.526;2023-03-14T13:39:54;5.60;;;5.40;;
12038;SDS011;6080;48.818;9.526;2023-03-14T13:42:21;5.80;;;5.50;;
12038;SDS011;6080;48.818;9.526;2023-03-14T13:44:51;3.83;;;3.57;;
12038;SDS011;6080;48.818;9.526;2023-03-14T13:47:20;4.10;;;3.90;;
12038;SDS011;6080;48.818;9.526;2023-03-14T13:49:48;3.53;;;3.40;;
12038;SDS011;6080;48.818;9.526;2023-03-14T13:54:53;6.23;;;5.73;;
12038;SDS011;6080;48.818;9.526;2023-03-14T13:57:20;3.33;;;3.17;;
12038;SDS011;6080;48.818;9.526;2023-03-14T13:59:58;6.37;;;5.20;;
12038;SDS011;6080;48.818;9.526;2023-03-14T14:02:25;6.13;;;5.67;;
12038;SDS011;6080;48.818;9.526;2023-03-14T14:04:52;4.73;;;4.53;;
12038;SDS011;6080;48.818;9.526;2023-03-14T14:07:18;6.80;;;6.50;;
12038;SDS011;6080;48.818;9.526;2023-03-14T14:09:46;4.27;;;3.97;;
12038;SDS011;6080;48.818;9.526;2023-03-14T14:12:15;4.67;;;4.17;;
12038;SDS011;6080;48.818;9.526;2023-03-14T14:17:26;3.77;;;3.57;;
12038;SDS011;6080;48.818;9.526;2023-03-14T14:19:58;3.10;;;3.00;;
12038;SDS011;6080;48.818;9.526;2023-03-14T14:22:28;3.10;;;2.90;;
12038;SDS011;6080;48.818;9.526;2023-03-14T14:24:55;3.43;;;3.10;;
12038;SDS011;6080;48.818;9.526;2023-03-14T14:27:28;3.27;;;3.17;;
12038;SDS011;6080;48.818;9.526;2023-03-14T14:30:21;3.47;;;3.10;;
12038;SDS011;6080;48.818;9.526;2023-03-14T14:32:52;3.10;;;3.00;;
12038;SDS011;6080;48.818;9.526;2023-03-14T14:37:50;3.40;;;3.10;;
12038;SDS011;6080;48.818;9.526;2023-03-14T14:40:19;3.27;;;3.17;;
12038;SDS011;6080;48.818;9.526;2023-03-14T14:42:48;3.93;;;3.63;;
12038;SDS011;6080;48.818;9.526;2023-03-14T14:45:21;3.30;;;3.20;;
12038;SDS011;6080;48.818;9.526;2023-03-14T14:47:52;4.87;;;3.40;;
12038;SDS011;6080;48.818;9.526;2023-03-14T14:50:28;3.70;;;3.40;;
12038;SDS011;6080;48.818;9.526;2023-03-14T14:53:00;4.63;;;3.50;;
12038;SDS011;6080;48.818;9.526;2023-03-14T14:55:32;3.50;;;3.20;;
12038;SDS011;6080;48.818;9.526;2023-03-14T15:01:10;2.90;;;2.80;;
12038;SDS011;6080;48.818;9.526;2023-03-14T15:03:41;4.03;;;3.73;;
12038;SDS011;6080;48.818;9.526;2023-03-14T15:06:10;3.50;;;3.20;;
12038;SDS011;6080;48.818;9.526;2023-03-14T15:08:37;4.30;;;3.17;;
12038;SDS011;6080;48.818;9.526;2023-03-14T15:11:03;4.03;;;3.73;;
12038;SDS011;6080;48.818;9.526;2023-03-14T15:13:30;3.60;;;3.47;;
12038;SDS011;6080;48.818;9.526;2023-03-14T15:15:55;3.63;;;3.40;;
12038;SDS011;6080;48.818;9.526;2023-03-14T15:18:25;3.50;;;3.30;;
12038;SDS011;6080;48.818;9.526;2023-03-14T15:20:53;3.30;;;3.20;;
12038;SDS011;6080;48.818;9.526;2023-03-14T15:23:20;3.60;;;3.40;;
12038;SDS011;6080;48.818;9.526;2023-03-14T15:25:47;4.77;;;3.43;;
12038;SDS011;6080;48.818;9.526;2023-03-14T15:28:19;4.83;;;3.73;;
12038;SDS011;6080;48.818;9.526;2023-03-14T15:30:48;3.70;;;3.50;;
12038;SDS011;6080;48.818;9.526;2023-03-14T15:33:15;3.73;;;3.50;;
12038;SDS011;6080;48.818;9.526;2023-03-14T15:35:41;7.00;;;5.63;;
12038;SDS011;6080;48.818;9.526;2023-03-14T15:38:18;6.63;;;6.03;;
12038;SDS011;6080;48.818;9.526;2023-03-14T15:40:46;5.20;;;4.70;;
12038;SDS011;6080;48.818;9.526;2023-03-14T15:43:12;5.93;;;5.10;;
12038;SDS011;6080;48.818;9.526;2023-03-14T15:45:38;5.17;;;4.53;;
12038;SDS011;6080;48.818;9.526;2023-03-14T15:48:05;4.80;;;4.40;;
12038;SDS011;6080;48.818;9.526;2023-03-14T15:50:31;4.60;;;4.10;;
12038;SDS011;6080;48.818;9.526;2023-03-14T15:52:56;4.47;;;4.07;;
12038;SDS011;6080;48.818;9.526;2023-03-14T15:55:22;4.67;;;4.23;;
12038;SDS011;6080;48.818;9.526;2023-03-14T15:57:48;3.87;;;3.60;;
12038;SDS011;6080;48.818;9.526;2023-03-14T16:00:16;3.40;;;3.30;;
12038;SDS011;6080;48.818;9.526;2023-03-14T16:02:43;4.67;;;3.93;;
12038;SDS011;6080;48.818;9.526;2023-03-14T16:05:10;4.43;;;4.00;;
12038;SDS011;6080;48.818;9.526;2023-03-14T16:07:37;4.53;;;4.17;;
12038;SDS011;6080;48.818;9.526;2023-03-14T16:10:03;4.17;;;3.80;;
12038;SDS011;6080;48.818;9.526;2023-03-14T16:12:30;4.70;;;4.03;;
12038;SDS011;6080;48.818;9.526;2023-03-14T16:14:56;4.50;;;3.50;;
12038;SDS011;6080;48.818;9.526;2023-03-14T16:17:22;3.70;;;3.50;;
12038;SDS011;6080;48.818;9.526;2023-03-14T16:19:48;3.63;;;3.40;;
12038;SDS011;6080;48.818;9.526;2023-03-14T16:22:14;6.53;;;3.80;;
12038;SDS011;6080;48.818;9.526;2023-03-14T16:24:40;4.60;;;4.30;;
12038;SDS011;6080;48.818;9.526;2023-03-14T16:27:07;4.93;;;3.80;;
12038;SDS011;6080;48.818;9.526;2023-03-14T16:29:33;3.80;;;3.60;;
12038;SDS011;6080;48.818;9.526;2023-03-14T16:31:59;4.10;;;3.80;;
12038;SDS011;6080;48.818;9.526;2023-03-14T16:34:25;3.70;;;3.40;;
12038;SDS011;6080;48.818;9.526;2023-03-14T16:36:52;4.57;;;3.93;;
12038;SDS011;6080;48.818;9.526;2023-03-14T16:39:18;4.97;;;4.70;;
12038;SDS011;6080;48.818;9.526;2023-03-14T16:41:44;7.03;;;6.53;;
12038;SDS011;6080;48.818;9.526;2023-03-14T16:44:10;6.53;;;6.23;;
12038;SDS011;6080;48.818;9.526;2023-03-14T16:46:36;5.43;;;5.03;;
12038;SDS011;6080;48.818;9.526;2023-03-14T16:49:02;4.10;;;3.77;;
12038;SDS011;6080;48.818;9.526;2023-03-14T16:51:29;4.93;;;3.87;;
12038;SDS011;6080;48.818;9.526;2023-03-14T16:53:55;3.67;;;3.47;;
12038;SDS011;6080;48.818;9.526;2023-03-14T16:56:21;5.27;;;5.07;;
12038;SDS011;6080;48.818;9.526;2023-03-14T16:58:48;4.10;;;3.90;;
12038;SDS011;6080;48.818;9.526;2023-03-14T17:01:14;5.40;;;4.03;;
12038;SDS011;6080;48.818;9.526;2023-03-14T17:03:46;5.00;;;3.87;;
12038;SDS011;6080;48.818;9.526;2023-03-14T17:06:14;4.43;;;4.13;;
12038;SDS011;6080;48.818;9.526;2023-03-14T17:08:42;7.00;;;6.13;;
12038;SDS011;6080;48.818;9.526;2023-03-14T17:11:08;7.90;;;6.07;;
12038;SDS011;6080;48.818;9.526;2023-03-14T17:13:35;6.27;;;5.67;;
12038;SDS011;6080;48.818;9.526;2023-03-14T17:16:01;9.57;;;7.87;;
12038;SDS011;6080;48.818;9.526;2023-03-14T17:18:27;5.57;;;5.07;;
12038;SDS011;6080;48.818;9.526;2023-03-14T17:20:55;4.43;;;4.13;;
12038;SDS011;6080;48.818;9.526;2023-03-14T17:23:21;4.90;;;4.57;;
12038;SDS011;6080;48.818;9.526;2023-03-14T17:25:49;5.13;;;4.67;;
12038;SDS011;6080;48.818;9.526;2023-03-14T17:28:16;4.53;;;4.40;;
12038;SDS011;6080;48.818;9.526;2023-03-14T17:30:43;6.47;;;5.97;;
12038;SDS011;6080;48.818;9.526;2023-03-14T17:33:09;9.93;;;9.23;;
12038;SDS011;6080;48.818;9.526;2023-03-14T17:35:35;9.40;;;8.70;;
12038;SDS011;6080;48.818;9.526;2023-03-14T17:38:01;9.97;;;9.27;;
12038;SDS011;6080;48.818;9.526;2023-03-14T17:40:27;11.17;;;10.50;;
12038;SDS011;6080;48.818;9.526;2023-03-14T17:42:53;10.97;;;10.10;;
12038;SDS011;6080;48.818;9.526;2023-03-14T17:45:19;9.83;;;9.10;;
12038;SDS011;6080;48.818;9.526;2023-03-14T17:47:45;8.33;;;7.93;;
12038;SDS011;6080;48.818;9.526;2023-03-14T17:50:11;5.60;;;5.17;;
12038;SDS011;6080;48.818;9.526;2023-03-14T17:52:37;5.17;;;4.63;;
12038;SDS011;6080;48.818;9.526;2023-03-14T17:55:03;6.23;;;5.87;;
12038;SDS011;6080;48.818;9.526;2023-03-14T17:57:30;5.57;;;5.00;;
12038;SDS011;6080;48.818;9.526;2023-03-14T17:59:57;8.97;;;8.53;;
12038;SDS011;6080;48.818;9.526;2023-03-14T18:02:24;7.80;;;7.10;;
12038;SDS011;6080;48.818;9.526;2023-03-14T18:04:50;10.93;;;10.23;;
12038;SDS011;6080;48.818;9.526;2023-03-14T18:07:17;14.70;;;13.97;;
12038;SDS011;6080;48.818;9.526;2023-03-14T18:09:44;26.27;;;24.97;;
12038;SDS011;6080;48.818;9.526;2023-03-14T18:12:10;27.93;;;26.17;;
12038;SDS011;6080;48.818;9.526;2023-03-14T18:14:36;22.33;;;21.23;;
12038;SDS011;6080;48.818;9.526;2023-03-14T18:17:03;17.03;;;16.33;;
12038;SDS011;6080;48.818;9.526;2023-03-14T18:19:29;6.80;;;6.30;;
12038;SDS011;6080;48.818;9.526;2023-03-14T18:21:56;4.43;;;4.13;;
12038;SDS011;6080;48.818;9.526;2023-03-14T18:24:22;6.93;;;4.20;;
12038;SDS011;6080;48.818;9.526;2023-03-14T18:26:48;4.50;;;4.30;;
12038;SDS011;6080;48.818;9.526;2023-03-14T18:29:14;8.40;;;8.00;;
12038;SDS011;6080;48.818;9.526;2023-03-14T18:31:40;6.67;;;6.27;;
12038;SDS011;6080;48.818;9.526;2023-03-14T18:34:06;7.93;;;7.60;;
12038;SDS011;6080;48.818;9.526;2023-03-14T18:36:32;8.10;;;7.47;;
12038;SDS011;6080;48.818;9.526;2023-03-14T18:38:58;5.10;;;4.70;;
12038;SDS011;6080;48.818;9.526;2023-03-14T18:41:24;16.13;;;15.33;;
12038;SDS011;6080;48.818;9.526;2023-03-14T18:43:51;5.40;;;5.10;;
12038;SDS011;6080;48.818;9.526;2023-03-14T18:46:18;21.03;;;19.93;;
12038;SDS011;6080;48.818;9.526;2023-03-14T18:48:46;17.90;;;16.83;;
12038;SDS011;6080;48.818;9.526;2023-03-14T18:51:13;6.77;;;6.37;;
12038;SDS011;6080;48.818;9.526;2023-03-14T18:53:43;10.10;;;7.47;;
12038;SDS011;6080;48.818;9.526;2023-03-14T18:56:09;11.20;;;10.50;;
12038;SDS011;6080;48.818;9.526;2023-03-14T18:58:37;10.33;;;9.63;;
12038;SDS011;6080;48.818;9.526;2023-03-14T19:01:04;20.80;;;19.80;;
12038;SDS011;6080;48.818;9.526;2023-03-14T19:03:30;14.57;;;13.60;;
12038;SDS011;6080;48.818;9.526;2023-03-14T19:05:57;13.07;;;12.20;;
12038;SDS011;6080;48.818;9.526;2023-03-14T19:08:25;22.17;;;21.00;;
12038;SDS011;6080;48.818;9.526;2023-03-14T19:10:53;22.40;;;21.30;;
12038;SDS011;6080;48.818;9.526;2023-03-14T19:13:20;25.43;;;24.17;;
12038;SDS011;6080;48.818;9.526;2023-03-14T19:15:47;18.00;;;17.10;;
12038;SDS011;6080;48.818;9.526;2023-03-14T19:18:13;14.63;;;13.87;;
12038;SDS011;6080;48.818;9.526;2023-03-14T19:20:39;13.00;;;12.30;;
12038;SDS011;6080;48.818;9.526;2023-03-14T19:23:08;6.00;;;5.70;;
12038;SDS011;6080;48.818;9.526;2023-03-14T19:25:34;5.40;;;5.13;;
12038;SDS011;6080;48.818;9.526;2023-03-14T19:28:00;7.47;;;6.97;;
12038;SDS011;6080;48.818;9.526;2023-03-14T19:30:26;5.27;;;4.83;;
12038;SDS011;6080;48.818;9.526;2023-03-14T19:32:51;5.37;;;4.43;;
12038;SDS011;6080;48.818;9.526;2023-03-14T19:35:17;5.37;;;4.50;;
12038;SDS011;6080;48.818;9.526;2023-03-14T19:37:43;6.23;;;5.93;;
12038;SDS011;6080;48.818;9.526;2023-03-14T19:40:10;9.63;;;8.87;;
12038;SDS011;6080;48.818;9.526;2023-03-14T19:42:36;11.60;;;10.90;;
12038;SDS011;6080;48.818;9.526;2023-03-14T19:45:02;9.07;;;8.57;;
12038;SDS011;6080;48.818;9.526;2023-03-14T19:47:29;7.27;;;6.87;;
12038;SDS011;6080;48.818;9.526;2023-03-14T19:49:55;7.47;;;7.07;;
12038;SDS011;6080;48.818;9.526;2023-03-14T19:52:22;6.83;;;6.50;;
12038;SDS011;6080;48.818;9.526;2023-03-14T19:54:48;6.93;;;6.23;;
12038;SDS011;6080;48.818;9.526;2023-03-14T19:57:15;8.70;;;8.17;;
12038;SDS011;6080;48.818;9.526;2023-03-14T19:59:41;8.17;;;7.67;;